Airport ICAO


20:10 UTC

20°C

Clear skies


An affordable passengers' Moving Map for your aircraft. Made for the iPad and the iPhone
More information here

LFMN Cote D'Azur


Nice FRANCE   VFR CAVOK


METAR LFMN 162000Z 30013KT CAVOK 20/15 Q1010 TEMPO 24010KT 0h10min

TAF LFMN 161400Z 1615/1721 34010KT 9999 SHRA FEW040CB BKN100 PROB40 TEMPO 1615/1618 VRB15G30KT 4000 TSRA SCT040CB BECMG 1618/1620 VRB03KT NSC BECMG 1622/1624 35010KT BECMG 1707/1709 18010KT 6h10min





NOTAMS

OPEN